createdAt,value
2023-01-10T00:00:55.857Z,100161.31
2023-01-10T00:03:23.019Z,100168.91
2023-01-10T00:05:50.259Z,100172.38
2023-01-10T00:08:18.039Z,100176.72
2023-01-10T00:10:45.236Z,100175.72
2023-01-10T00:13:26.030Z,100185.88
2023-01-10T00:15:54.586Z,100194.59
2023-01-10T00:18:22.261Z,100185.03
2023-01-10T00:20:49.998Z,100190.19
2023-01-10T00:23:18.429Z,100185.06
2023-01-10T00:25:46.138Z,100180.72
2023-01-10T00:28:23.694Z,100192.06
2023-01-10T00:30:57.610Z,100187.16
2023-01-10T00:33:24.817Z,100199.13
2023-01-10T00:35:51.992Z,100193.66
2023-01-10T00:38:19.219Z,100205.06
2023-01-10T00:40:46.713Z,100211.22
2023-01-10T00:43:32.486Z,100218.78
2023-01-10T00:45:59.708Z,100223.34
2023-01-10T00:48:26.912Z,100218.13
2023-01-10T00:50:54.073Z,100223.28
2023-01-10T00:53:21.598Z,100232.28
2023-01-10T00:55:48.850Z,100233.28
2023-01-10T00:58:17.146Z,100238.56
2023-01-10T01:00:49.539Z,100242.06
2023-01-10T01:03:19.928Z,100249.03
2023-01-10T01:05:48.740Z,100251.56
2023-01-10T01:08:17.180Z,100256.88
2023-01-10T01:10:44.497Z,100259.94
2023-01-10T01:13:18.102Z,100258.31
2023-01-10T01:15:45.644Z,100265.47
2023-01-10T01:18:15.277Z,100274.88
2023-01-10T01:20:43.003Z,100266.31
2023-01-10T01:23:10.160Z,100272.72
2023-01-10T01:25:37.340Z,100270.25
2023-01-10T01:28:04.771Z,100271.28
2023-01-10T01:30:31.990Z,100277.59
2023-01-10T01:32:59.171Z,100281.94
2023-01-10T01:35:26.595Z,100291.50
2023-01-10T01:37:53.777Z,100305.28
2023-01-10T01:40:22.761Z,100306.38
2023-01-10T01:42:55.461Z,100312.63
2023-01-10T01:45:36.183Z,100314.53
2023-01-10T01:48:25.218Z,100310.09
2023-01-10T01:51:11.858Z,100318.91
2023-01-10T01:53:54.832Z,100322.38
2023-01-10T01:56:35.009Z,100329.22
2023-01-10T01:59:16.142Z,100336.09
2023-01-10T02:01:46.099Z,100341.97
2023-01-10T02:04:18.522Z,100339.97
2023-01-10T02:06:46.983Z,100346.75
2023-01-10T02:09:40.417Z,100352.06
2023-01-10T02:12:08.059Z,100352.84
2023-01-10T02:14:35.752Z,100357.13
2023-01-10T02:17:03.047Z,100363.34
2023-01-10T02:19:56.915Z,100363.47
2023-01-10T02:23:05.721Z,100369.66
2023-01-10T02:25:54.000Z,100364.22
2023-01-10T02:28:31.974Z,100363.19
2023-01-10T02:31:26.462Z,100370.16
2023-01-10T02:34:25.902Z,100377.09
2023-01-10T02:37:13.454Z,100374.22
2023-01-10T02:40:03.488Z,100378.53
2023-01-10T02:42:47.188Z,100380.13
2023-01-10T02:45:19.617Z,100387.84
2023-01-10T02:47:46.763Z,100389.84
2023-01-10T02:50:30.215Z,100391.31
2023-01-10T02:53:03.510Z,100394.84
2023-01-10T02:55:49.538Z,100395.69
2023-01-10T02:58:50.608Z,100392.41
2023-01-10T03:01:52.506Z,100401.06
2023-01-10T03:04:38.315Z,100409.19
2023-01-10T03:07:21.263Z,100408.22
2023-01-10T03:09:53.328Z,100415.94
2023-01-10T03:12:25.606Z,100427.41
2023-01-10T03:14:55.060Z,100433.06
2023-01-10T03:17:23.139Z,100442.88
2023-01-10T03:19:54.802Z,100445.44
2023-01-10T03:22:22.414Z,100457.47
2023-01-10T03:24:51.660Z,100466.19
2023-01-10T03:27:19.174Z,100464.47
2023-01-10T03:29:52.679Z,100461.97
2023-01-10T03:32:23.829Z,100465.59
2023-01-10T03:34:51.170Z,100483.78
2023-01-10T03:37:32.083Z,100481.09
2023-01-10T03:40:21.460Z,100486.16
2023-01-10T03:43:18.333Z,100496.56
2023-01-10T03:46:01.896Z,100506.16
2023-01-10T03:48:32.364Z,100511.50
2023-01-10T03:51:00.831Z,100524.50
2023-01-10T03:53:28.186Z,100528.75
2023-01-10T03:55:55.494Z,100529.81
2023-01-10T03:58:22.663Z,100534.25
2023-01-10T04:00:50.371Z,100541.09
2023-01-10T04:03:17.623Z,100543.59
2023-01-10T04:05:44.795Z,100550.47
2023-01-10T04:08:11.968Z,100551.38
2023-01-10T04:10:39.256Z,100560.00
2023-01-10T04:13:06.624Z,100563.53
2023-01-10T04:15:33.878Z,100570.56
2023-01-10T04:18:01.020Z,100569.19
2023-01-10T04:20:28.305Z,100578.00
2023-01-10T04:22:55.618Z,100578.84
2023-01-10T04:25:23.785Z,100581.53
2023-01-10T04:27:51.786Z,100586.69
2023-01-10T04:30:22.102Z,100596.25
2023-01-10T04:32:49.327Z,100591.06
2023-01-10T04:35:16.495Z,100598.00
2023-01-10T04:37:43.858Z,100609.28
2023-01-10T04:40:11.642Z,100608.41
2023-01-10T04:42:38.786Z,100620.47
2023-01-10T04:45:06.518Z,100625.63
2023-01-10T04:47:33.691Z,100629.16
2023-01-10T04:50:00.848Z,100640.41
2023-01-10T04:52:28.199Z,100637.84
2023-01-10T04:54:55.377Z,100647.41
2023-01-10T04:57:22.591Z,100645.63
2023-01-10T04:59:49.776Z,100649.97
2023-01-10T05:02:17.167Z,100650.88
2023-01-10T05:04:44.376Z,100657.16
2023-01-10T05:07:12.347Z,100656.13
2023-01-10T05:09:39.804Z,100659.66
2023-01-10T05:12:07.039Z,100676.31
2023-01-10T05:14:34.185Z,100679.78
2023-01-10T05:17:01.569Z,100689.41
2023-01-10T05:19:28.775Z,100698.09
2023-01-10T05:21:55.928Z,100698.09
2023-01-10T05:24:23.072Z,100701.50
2023-01-10T05:26:50.240Z,100711.00
2023-01-10T05:29:17.430Z,100716.09
2023-01-10T05:31:44.690Z,100725.63
2023-01-10T05:34:13.219Z,100728.03
2023-01-10T05:36:40.994Z,100733.38
2023-01-10T05:39:08.153Z,100730.00
2023-01-10T05:41:35.446Z,100729.06
2023-01-10T05:44:02.634Z,100742.94
2023-01-10T05:46:30.077Z,100742.09
2023-01-10T05:48:57.264Z,100735.34
2023-01-10T05:51:24.527Z,100744.09
2023-01-10T05:53:51.795Z,100746.84
2023-01-10T05:56:19.033Z,100754.00
2023-01-10T05:58:47.438Z,100757.41
2023-01-10T06:01:16.831Z,100765.28
2023-01-10T06:03:44.369Z,100774.81
2023-01-10T06:06:11.586Z,100777.50
2023-01-10T06:08:38.896Z,100787.00
2023-01-10T06:11:06.658Z,100781.81
2023-01-10T06:13:34.206Z,100789.44
2023-01-10T06:16:01.438Z,100795.47
2023-01-10T06:18:28.594Z,100801.72
2023-01-10T06:20:55.816Z,100808.59
2023-01-10T06:23:23.019Z,100814.47
2023-01-10T06:25:50.339Z,100796.97
2023-01-10T06:28:17.933Z,100815.28
2023-01-10T06:30:45.113Z,100822.28
2023-01-10T06:33:12.839Z,100831.09
2023-01-10T06:35:40.275Z,100832.81
2023-01-10T06:38:07.565Z,100840.81
2023-01-10T06:40:34.852Z,100849.63
2023-01-10T06:43:02.029Z,100857.22
2023-01-10T06:45:29.259Z,100862.44
2023-01-10T06:47:56.482Z,100872.81
2023-01-10T06:50:24.086Z,100864.09
2023-01-10T06:52:59.316Z,100873.69
2023-01-10T06:55:27.087Z,100880.03
2023-01-10T06:58:03.223Z,100878.97
2023-01-10T07:00:30.775Z,100883.34
2023-01-10T07:03:02.373Z,100888.63
2023-01-10T07:05:30.882Z,100895.44
2023-01-10T07:07:58.837Z,100904.84
2023-01-10T07:10:26.191Z,100912.72
2023-01-10T07:12:55.773Z,100909.47
2023-01-10T07:15:23.034Z,100911.38
2023-01-10T07:17:50.213Z,100917.41
2023-01-10T07:20:17.747Z,100926.22
2023-01-10T07:22:45.055Z,100926.22
2023-01-10T07:25:12.250Z,100940.22
2023-01-10T07:27:43.304Z,100939.41
2023-01-10T07:30:11.079Z,100949.94
2023-01-10T07:32:38.588Z,100946.59
2023-01-10T07:35:06.110Z,100950.03
2023-01-10T07:37:33.446Z,100955.31
2023-01-10T07:40:00.777Z,100956.13
2023-01-10T07:42:28.070Z,100964.06
2023-01-10T07:44:55.489Z,100976.44
2023-01-10T07:47:22.863Z,100978.16
2023-01-10T07:49:50.167Z,100979.84
2023-01-10T07:52:17.484Z,100988.59
2023-01-10T07:54:47.491Z,101005.97
2023-01-10T07:57:17.438Z,101005.81
2023-01-10T07:59:45.171Z,101001.31
2023-01-10T08:02:12.385Z,101001.38
2023-01-10T08:04:39.630Z,101009.19
2023-01-10T08:07:06.932Z,101010.81
2023-01-10T08:09:34.193Z,101014.13
2023-01-10T08:12:01.443Z,101022.88
2023-01-10T08:14:28.741Z,101020.88
2023-01-10T08:16:55.921Z,101019.16
2023-01-10T08:19:23.125Z,101029.69
2023-01-10T08:21:50.357Z,101033.22
2023-01-10T08:24:17.523Z,101033.44
2023-01-10T08:26:44.739Z,101042.34
2023-01-10T08:29:12.169Z,101051.78
2023-01-10T08:31:41.605Z,101056.13
2023-01-10T08:34:08.898Z,101056.88
2023-01-10T08:36:36.141Z,101056.72
2023-01-10T08:39:03.298Z,101056.69
2023-01-10T08:41:31.313Z,101061.94
2023-01-10T08:43:58.517Z,101051.53
2023-01-10T08:46:28.873Z,101065.22
2023-01-10T08:48:56.099Z,101073.56
2023-01-10T08:51:23.378Z,101081.94
2023-01-10T08:53:50.878Z,101076.47
2023-01-10T08:56:18.101Z,101085.00
2023-01-10T08:58:45.284Z,101089.22
2023-01-10T09:01:14.337Z,101090.16
2023-01-10T09:03:41.739Z,101099.72
2023-01-10T09:06:09.092Z,101107.81
2023-01-10T09:08:37.845Z,101112.16
2023-01-10T09:11:05.967Z,101105.94
2023-01-10T09:13:33.848Z,101115.50
2023-01-10T09:16:01.278Z,101111.06
2023-01-10T09:18:28.623Z,101122.34
2023-01-10T09:20:55.886Z,101112.72
2023-01-10T09:23:24.733Z,101120.47
2023-01-10T09:25:53.766Z,101118.66
2023-01-10T09:28:22.256Z,101131.97
2023-01-10T09:30:49.983Z,101122.03
2023-01-10T09:33:17.383Z,101129.13
2023-01-10T09:35:44.665Z,101120.63
2023-01-10T09:38:14.800Z,101123.59
2023-01-10T09:40:59.089Z,101136.91
2023-01-10T09:43:47.153Z,101141.38
2023-01-10T09:46:26.807Z,101147.63
2023-01-10T09:49:23.633Z,101139.69
2023-01-10T09:51:52.180Z,101142.34
2023-01-10T09:54:33.050Z,101137.06
2023-01-10T09:57:01.397Z,101143.16
2023-01-10T09:59:40.212Z,101137.81
2023-01-10T10:02:42.245Z,101137.72
2023-01-10T10:05:29.387Z,101132.44
2023-01-10T10:08:05.155Z,101131.28
2023-01-10T10:10:39.440Z,101134.50
2023-01-10T10:13:27.607Z,101131.41
2023-01-10T10:16:11.850Z,101137.34
2023-01-10T10:18:55.390Z,101128.50
2023-01-10T10:21:45.329Z,101131.84
2023-01-10T10:24:28.574Z,101136.72
2023-01-10T10:26:59.391Z,101144.34
2023-01-10T10:29:57.676Z,101152.34
2023-01-10T10:32:33.656Z,101158.34
2023-01-10T10:35:13.231Z,101153.13
2023-01-10T10:37:48.164Z,101161.88
2023-01-10T10:40:18.384Z,101160.00
2023-01-10T10:42:57.435Z,101161.78
2023-01-10T10:45:39.732Z,101161.78
2023-01-10T10:48:27.459Z,101167.75
2023-01-10T10:51:02.968Z,101175.56
2023-01-10T10:53:32.179Z,101192.31
2023-01-10T10:55:59.759Z,101200.94
2023-01-10T10:58:30.868Z,101193.06
2023-01-10T11:01:01.068Z,101183.47
2023-01-10T11:03:47.187Z,101180.97
2023-01-10T11:06:16.263Z,101168.97
2023-01-10T11:08:47.080Z,101160.47
2023-01-10T11:11:36.350Z,101157.00
2023-01-10T11:14:04.710Z,101157.97
2023-01-10T11:16:37.610Z,101159.94
2023-01-10T11:19:24.013Z,101170.38
2023-01-10T11:21:57.178Z,101172.75
2023-01-10T11:24:31.604Z,101176.03
2023-01-10T11:27:00.864Z,101169.75
2023-01-10T11:29:43.362Z,101171.25
2023-01-10T11:32:17.644Z,101180.75
2023-01-10T11:35:30.892Z,101183.94
2023-01-10T11:38:02.553Z,101184.97
2023-01-10T11:40:34.382Z,101188.53
2023-01-10T11:43:40.761Z,101195.78
2023-01-10T11:46:15.823Z,101195.00
2023-01-10T11:49:06.701Z,101207.41
2023-01-10T11:51:38.649Z,101207.56
2023-01-10T11:54:07.867Z,101202.22
2023-01-10T11:56:35.518Z,101201.50
2023-01-10T11:59:19.665Z,101201.69
2023-01-10T12:01:57.387Z,101187.94
2023-01-10T12:04:25.153Z,101185.31
2023-01-10T12:06:56.117Z,101186.28
2023-01-10T12:09:42.832Z,101191.69
2023-01-10T12:12:25.514Z,101198.72
2023-01-10T12:14:55.671Z,101191.75
2023-01-10T12:17:24.724Z,101190.13
2023-01-10T12:19:53.769Z,101198.09
2023-01-10T12:22:29.743Z,101203.38
2023-01-10T12:24:57.585Z,101204.13
2023-01-10T12:27:25.016Z,101216.28
2023-01-10T12:30:10.104Z,101206.59
2023-01-10T12:32:42.705Z,101203.84
2023-01-10T12:35:21.327Z,101210.94
2023-01-10T12:38:44.328Z,101215.06
2023-01-10T12:41:34.088Z,101216.59
2023-01-10T12:44:13.125Z,101227.69
2023-01-10T12:47:08.342Z,101228.34
2023-01-10T12:49:44.395Z,101224.63
2023-01-10T12:52:18.863Z,101243.06
2023-01-10T12:54:49.412Z,101237.88
2023-01-10T12:57:29.559Z,101245.78
2023-01-10T12:59:58.883Z,101258.94
2023-01-10T13:02:28.925Z,101264.13
2023-01-10T13:05:00.235Z,101269.34
2023-01-10T13:07:32.579Z,101262.25
2023-01-10T13:10:02.129Z,101276.97
2023-01-10T13:12:35.391Z,101272.03
2023-01-10T13:15:11.634Z,101270.50
2023-01-10T13:17:44.502Z,101273.25
2023-01-10T13:20:18.804Z,101274.16
2023-01-10T13:22:48.430Z,101268.97
2023-01-10T13:25:55.084Z,101270.50
2023-01-10T13:28:34.292Z,101266.25
2023-01-10T13:31:20.144Z,101264.47
2023-01-10T13:38:13.998Z,101269.69
2023-01-10T13:40:41.544Z,101273.94
2023-01-10T13:43:38.135Z,101276.00
2023-01-10T13:49:47.559Z,101275.94
2023-01-10T13:52:28.498Z,101273.53
2023-01-10T14:07:09.061Z,101286.53
2023-01-10T14:09:41.314Z,101289.00
2023-01-10T14:12:51.564Z,101284.50
2023-01-10T14:15:37.335Z,101292.31
2023-01-10T14:18:23.082Z,101290.44
2023-01-10T14:21:10.723Z,101290.56
2023-01-10T14:23:49.723Z,101287.94
2023-01-10T14:45:10.585Z,101277.28
2023-01-10T14:47:39.243Z,101285.13
2023-01-10T14:50:07.390Z,101286.91
2023-01-10T14:53:39.918Z,101286.06
2023-01-10T15:02:54.876Z,101294.88
